Ekron, Kentucky
Current Conditions -  °F | °C
As of 11:58 PM on Friday 21 Nov 2014 (Local Time) from KFTK Reporting Station
Overcast Overcast  
Wind Chill: 36°   Ceiling: 4200
Heat Index: 36°   Visibility: 10mi
Dew Point: 17°   Wind: 3mph
Humidity: 46%   Direction: 90°E
Pressure: 30.34"   Gusts: NA
Location:  37.93°N, 86.18°W
Report Text: KFTK 220458Z AUTO 09003KT 10SM OVC042 02/M08 A3034 RMK AO2 SLP283 T00221085 400521097
Loading
Personal Weather Stations






























Interactive Weather Map New forecast layout! Learn more

10-Day Weather Forecast

Advertisements
Track Severe Weather on mobile